Time;durP1;ratioP1;P1;durP2;ratioP2;P2;SDS_P1;SDS_P2;PMS_P1;PMS_P2;Temp;Humidity;BMP_temperature;BMP_pressure;BME280_temperature;BME280_humidity;BME280_pressure;Samples;Min_cycle;Max_cycle;Signal;HPM_P1;HPM_P2
2023/08/01 00:01:20;0.00;0.00;0.62;0.00;0.00;0.62;2.00;1.50;;;28.70;31.90;;;;;;2268455;61;20405;-62
2023/08/01 00:04:06;0.00;0.00;0.62;0.00;0.00;0.62;1.90;1.43;;;28.70;31.90;;;;;;2272090;61;20363;-61
2023/08/01 00:06:51;0.00;0.00;0.62;0.00;0.00;0.62;1.77;1.10;;;28.70;31.90;;;;;;2271876;61;20428;-61
2023/08/01 00:09:36;0.00;0.00;0.62;0.00;0.00;0.62;1.97;1.33;;;28.70;31.90;;;;;;2271156;61;20747;-61
2023/08/01 00:12:21;0.00;0.00;0.62;0.00;0.00;0.62;2.07;1.20;;;28.70;31.90;;;;;;2271814;61;20359;-61
2023/08/01 00:15:08;0.00;0.00;0.62;0.00;0.00;0.62;2.37;1.37;;;28.70;31.90;;;;;;2271834;61;20359;-61
2023/08/01 00:17:53;0.00;0.00;0.62;0.00;0.00;0.62;2.03;1.30;;;28.70;31.90;;;;;;2271862;61;20462;-61
2023/08/01 00:20:39;0.00;0.00;0.62;0.00;0.00;0.62;2.13;1.43;;;28.70;31.90;;;;;;2271820;61;20363;-62
2023/08/01 00:23:24;0.00;0.00;0.62;0.00;0.00;0.62;3.00;1.23;;;28.70;32.00;;;;;;2271422;61;20814;-62
2023/08/01 00:26:09;0.00;0.00;0.62;0.00;0.00;0.62;1.80;1.30;;;28.70;31.90;;;;;;2271682;61;20866;-61
2023/08/01 00:28:53;0.00;0.00;0.62;0.00;0.00;0.62;1.77;1.20;;;28.70;31.90;;;;;;2271443;61;20965;-61
2023/08/01 00:31:38;0.00;0.00;0.62;0.00;0.00;0.62;1.83;1.37;;;28.70;31.90;;;;;;2271356;61;20887;-61
2023/08/01 00:34:23;0.00;0.00;0.62;0.00;0.00;0.62;1.70;1.10;;;28.70;31.90;;;;;;2271422;61;20409;-61
2023/08/01 00:37:08;0.00;0.00;0.62;0.00;0.00;0.62;1.90;1.20;;;28.70;31.90;;;;;;2270388;61;20407;-61
2023/08/01 00:39:53;0.00;0.00;0.62;0.00;0.00;0.62;1.53;1.07;;;28.70;31.90;;;;;;2263795;61;20388;-62
2023/08/01 00:42:38;0.00;0.00;0.62;0.00;0.00;0.62;2.00;1.30;;;28.70;31.90;;;;;;2267840;61;20402;-63
2023/08/01 00:45:26;0.00;0.00;0.62;0.00;0.00;0.62;1.97;1.00;;;28.70;31.90;;;;;;2267570;61;20368;-62
2023/08/01 00:48:11;0.00;0.00;0.62;0.00;0.00;0.62;1.63;1.00;;;28.70;31.90;;;;;;2264803;61;20469;-61
2023/08/01 00:50:57;0.00;0.00;0.62;0.00;0.00;0.62;2.03;1.07;;;28.70;31.80;;;;;;2267895;61;20448;-61
2023/08/01 00:53:46;0.00;0.00;0.62;0.00;0.00;0.62;1.93;1.30;;;28.70;31.90;;;;;;2264095;61;20409;-62
2023/08/01 00:56:30;0.00;0.00;0.62;0.00;0.00;0.62;1.40;0.90;;;28.70;32.40;;;;;;2268138;61;20386;-62
2023/08/01 00:59:16;0.00;0.00;0.62;0.00;0.00;0.62;1.87;1.23;;;28.70;31.90;;;;;;2267386;61;20380;-61
2023/08/01 01:02:01;0.00;0.00;0.62;0.00;0.00;0.62;4.37;1.40;;;28.70;31.90;;;;;;2267569;61;20368;-61
2023/08/01 01:04:46;0.00;0.00;0.62;0.00;0.00;0.62;1.47;0.87;;;28.70;31.90;;;;;;2264863;61;20379;-61
2023/08/01 01:07:31;0.00;0.00;0.62;0.00;0.00;0.62;1.90;1.07;;;28.70;31.90;;;;;;2264235;61;20411;-61
2023/08/01 01:10:17;0.00;0.00;0.62;0.00;0.00;0.62;2.10;1.60;;;28.70;31.90;;;;;;2264197;61;20407;-62
2023/08/01 01:13:03;0.00;0.00;0.62;0.00;0.00;0.62;1.80;0.90;;;28.70;31.90;;;;;;2267924;61;20391;-62
2023/08/01 01:15:47;0.00;0.00;0.62;0.00;0.00;0.62;2.10;0.97;;;28.70;31.90;;;;;;2267138;61;20367;-62
2023/08/01 01:18:32;0.00;0.00;0.62;0.00;0.00;0.62;1.50;1.00;;;28.70;31.80;;;;;;2264352;61;20376;-61
2023/08/01 01:21:20;0.00;0.00;0.62;0.00;0.00;0.62;1.60;1.00;;;28.70;31.90;;;;;;2264743;61;20426;-61
2023/08/01 01:24:09;0.00;0.00;0.62;0.00;0.00;0.62;1.80;1.07;;;28.70;31.90;;;;;;2264481;61;20395;-61
2023/08/01 01:26:55;0.00;0.00;0.62;0.00;0.00;0.62;1.60;1.10;;;28.70;31.90;;;;;;2264563;61;20368;-61
2023/08/01 01:29:42;0.00;0.00;0.62;0.00;0.00;0.62;1.60;1.10;;;28.70;31.90;;;;;;2264119;61;20431;-61
2023/08/01 01:32:28;0.00;0.00;0.62;0.00;0.00;0.62;1.80;1.00;;;28.70;31.80;;;;;;2267392;61;20396;-60
2023/08/01 01:35:13;0.00;0.00;0.62;0.00;0.00;0.62;1.40;0.80;;;28.70;31.90;;;;;;2264281;61;20415;-61
2023/08/01 01:38:03;0.00;0.00;0.62;0.00;0.00;0.62;1.83;1.03;;;28.70;31.90;;;;;;2263983;61;20781;-62
2023/08/01 01:40:48;0.00;0.00;0.62;0.00;0.00;0.62;1.50;0.90;;;28.70;31.90;;;;;;2267566;61;20361;-62
2023/08/01 01:43:32;0.00;0.00;0.62;0.00;0.00;0.62;1.60;1.10;;;28.70;31.80;;;;;;2267416;61;20402;-61
2023/08/01 01:46:17;0.00;0.00;0.62;0.00;0.00;0.62;1.50;1.00;;;28.70;31.90;;;;;;2267283;61;20367;-61
2023/08/01 01:49:02;0.00;0.00;0.62;0.00;0.00;0.62;1.60;0.90;;;28.70;31.80;;;;;;2267017;61;20383;-61
2023/08/01 01:51:47;0.00;0.00;0.62;0.00;0.00;0.62;1.40;0.90;;;28.70;31.80;;;;;;2264289;61;20502;-61
2023/08/01 01:54:33;0.00;0.00;0.62;0.00;0.00;0.62;1.70;0.90;;;28.70;31.90;;;;;;2264424;61;20357;-62
2023/08/01 01:57:18;0.00;0.00;0.62;0.00;0.00;0.62;1.63;0.90;;;28.70;31.90;;;;;;2267394;61;20364;-62
2023/08/01 02:00:03;0.00;0.00;0.62;0.00;0.00;0.62;1.60;0.90;;;28.70;31.90;;;;;;2263164;61;20380;-62
2023/08/01 02:02:57;0.00;0.00;0.62;0.00;0.00;0.62;1.60;0.90;;;28.70;31.80;;;;;;2267602;61;20365;-61
2023/08/01 02:05:41;0.00;0.00;0.62;0.00;0.00;0.62;1.63;0.80;;;28.70;31.80;;;;;;2267378;61;20413;-61
2023/08/01 02:08:26;0.00;0.00;0.62;0.00;0.00;0.62;1.80;1.07;;;28.70;31.80;;;;;;2266474;61;20805;-60
2023/08/01 02:11:12;0.00;0.00;0.62;0.00;0.00;0.62;1.40;0.90;;;28.70;31.80;;;;;;2264441;61;20360;-61
2023/08/01 02:13:57;0.00;0.00;0.62;0.00;0.00;0.62;1.50;0.90;;;28.70;31.80;;;;;;2267529;61;20436;-61
2023/08/01 02:16:42;0.00;0.00;0.62;0.00;0.00;0.62;1.63;0.90;;;28.60;31.80;;;;;;2267439;61;20375;-61
2023/08/01 02:19:27;0.00;0.00;0.62;0.00;0.00;0.62;1.47;0.87;;;28.70;31.90;;;;;;2263604;61;20380;-62
2023/08/01 02:22:12;0.00;0.00;0.62;0.00;0.00;0.62;1.30;0.83;;;28.70;31.90;;;;;;2264013;61;20360;-62
2023/08/01 02:24:57;0.00;0.00;0.62;0.00;0.00;0.62;1.30;0.70;;;28.60;31.80;;;;;;2264131;61;20418;-60
2023/08/01 02:27:43;0.00;0.00;0.62;0.00;0.00;0.62;1.47;0.90;;;28.70;31.90;;;;;;2267337;61;20407;-61
2023/08/01 02:30:29;0.00;0.00;0.62;0.00;0.00;0.62;1.53;0.97;;;28.70;31.80;;;;;;2266717;61;20372;-62
2023/08/01 02:33:14;0.00;0.00;0.62;0.00;0.00;0.62;1.40;0.80;;;28.70;31.80;;;;;;2264233;61;20360;-62
2023/08/01 02:35:58;0.00;0.00;0.62;0.00;0.00;0.62;1.30;0.77;;;28.70;31.80;;;;;;2267548;61;20415;-61
2023/08/01 02:38:44;0.00;0.00;0.62;0.00;0.00;0.62;1.50;0.80;;;28.70;31.80;;;;;;2504414;53;20364;-60
2023/08/01 02:41:28;0.00;0.00;0.62;0.00;0.00;0.62;2.00;0.90;;;28.60;31.70;;;;;;2264293;61;20444;-61
2023/08/01 02:44:16;0.00;0.00;0.62;0.00;0.00;0.62;1.40;0.80;;;28.70;31.80;;;;;;2263744;61;20440;-61
2023/08/01 02:47:00;0.00;0.00;0.62;0.00;0.00;0.62;2.17;0.80;;;28.70;31.80;;;;;;2267854;61;20384;-61
2023/08/01 02:49:45;0.00;0.00;0.62;0.00;0.00;0.62;1.40;0.80;;;28.60;31.80;;;;;;2266988;61;20462;-60
2023/08/01 02:52:30;0.00;0.00;0.62;0.00;0.00;0.62;1.40;0.80;;;28.60;31.80;;;;;;2263625;61;20418;-62
2023/08/01 02:55:16;0.00;0.00;0.62;0.00;0.00;0.62;1.40;0.70;;;28.60;31.80;;;;;;2264173;61;20382;-61
2023/08/01 02:58:00;0.00;0.00;0.62;0.00;0.00;0.62;1.40;0.80;;;28.60;31.70;;;;;;2264277;61;20380;-60
2023/08/01 03:00:47;0.00;0.00;0.62;0.00;0.00;0.62;1.47;0.70;;;28.70;31.80;;;;;;2263689;61;20356;-61
2023/08/01 03:03:32;0.00;0.00;0.62;0.00;0.00;0.62;2.70;0.80;;;28.60;31.80;;;;;;2264227;61;20364;-61
2023/08/01 03:06:18;0.00;0.00;0.62;0.00;0.00;0.62;1.63;0.90;;;28.70;31.80;;;;;;2263751;61;20360;-59
2023/08/01 03:09:03;0.00;0.00;0.62;0.00;0.00;0.62;1.50;0.80;;;28.60;31.70;;;;;;2266689;61;20438;-60
2023/08/01 03:11:47;0.00;0.00;0.62;0.00;0.00;0.62;1.70;0.80;;;28.60;31.80;;;;;;2267359;61;20376;-61
2023/08/01 03:14:32;0.00;0.00;0.62;0.00;0.00;0.62;3.57;0.70;;;28.60;31.80;;;;;;2266941;61;20359;-60
2023/08/01 03:17:18;0.00;0.00;0.62;0.00;0.00;0.62;1.30;0.60;;;28.60;31.80;;;;;;2267578;61;20364;-62
2023/08/01 03:20:04;0.00;0.00;0.62;0.00;0.00;0.62;1.30;0.80;;;28.70;31.80;;;;;;2267338;61;20392;-61
2023/08/01 03:22:49;0.00;0.00;0.62;0.00;0.00;0.62;1.40;0.70;;;28.60;31.70;;;;;;2266598;61;20411;-61
2023/08/01 03:25:34;0.00;0.00;0.62;0.00;0.00;0.62;1.30;0.73;;;28.60;31.80;;;;;;2261486;61;20363;-61
2023/08/01 03:28:18;0.00;0.00;0.62;0.00;0.00;0.62;1.40;0.70;;;28.70;31.80;;;;;;2266578;61;20392;-60
2023/08/01 03:31:03;0.00;0.00;0.62;0.00;0.00;0.62;1.57;0.97;;;28.60;31.70;;;;;;2264010;61;20368;-61
2023/08/01 03:33:49;0.00;0.00;0.62;0.00;0.00;0.62;1.40;0.70;;;28.70;31.80;;;;;;2267417;61;20398;-60
2023/08/01 03:36:34;0.00;0.00;0.62;0.00;0.00;0.62;1.30;0.70;;;28.60;31.70;;;;;;2261891;61;20402;-61
2023/08/01 03:39:20;0.00;0.00;0.62;0.00;0.00;0.62;1.60;0.87;;;28.60;31.80;;;;;;2267522;61;20902;-61
2023/08/01 03:42:05;0.00;0.00;0.62;0.00;0.00;0.62;1.40;0.80;;;28.60;31.70;;;;;;2271319;61;20359;-61
2023/08/01 03:44:49;0.00;0.00;0.62;0.00;0.00;0.62;1.37;0.70;;;28.60;32.40;;;;;;2266191;61;20431;-61
2023/08/01 03:47:34;0.00;0.00;0.62;0.00;0.00;0.62;1.43;0.80;;;28.60;31.80;;;;;;2271203;61;20387;-59
2023/08/01 03:50:21;0.00;0.00;0.62;0.00;0.00;0.62;1.57;0.70;;;28.60;31.80;;;;;;2271019;61;20367;-60
2023/08/01 03:53:08;0.00;0.00;0.62;0.00;0.00;0.62;1.60;0.70;;;28.60;31.70;;;;;;2268319;61;20409;-60
2023/08/01 03:55:53;0.00;0.00;0.62;0.00;0.00;0.62;1.87;0.70;;;28.60;31.70;;;;;;2271333;61;20359;-61
2023/08/01 03:58:38;0.00;0.00;0.62;0.00;0.00;0.62;1.70;0.63;;;28.60;31.70;;;;;;2267148;61;20896;-61
2023/08/01 04:01:23;0.00;0.00;0.62;0.00;0.00;0.62;1.40;0.80;;;28.60;31.80;;;;;;2268147;61;20960;-63
2023/08/01 04:04:08;0.00;0.00;0.62;0.00;0.00;0.62;1.30;0.80;;;28.60;31.70;;;;;;2267994;61;20378;-61
2023/08/01 04:06:54;0.00;0.00;0.62;0.00;0.00;0.62;1.40;0.70;;;28.60;31.70;;;;;;2270600;61;20377;-61
2023/08/01 04:09:38;0.00;0.00;0.62;0.00;0.00;0.62;1.60;0.80;;;28.60;31.80;;;;;;2270922;61;20919;-61
2023/08/01 04:12:23;0.00;0.00;0.62;0.00;0.00;0.62;1.30;0.80;;;28.60;31.70;;;;;;2271243;61;20374;-61
2023/08/01 04:15:09;0.00;0.00;0.62;0.00;0.00;0.62;1.40;0.80;;;28.60;31.80;;;;;;2271422;61;20367;-61
2023/08/01 04:17:54;0.00;0.00;0.62;0.00;0.00;0.62;1.30;0.70;;;28.60;31.70;;;;;;2271178;61;20832;-60
2023/08/01 04:20:38;0.00;0.00;0.62;0.00;0.00;0.62;1.50;0.70;;;28.60;31.70;;;;;;2270426;61;20359;-61
2023/08/01 04:23:24;0.00;0.00;0.62;0.00;0.00;0.62;1.30;0.70;;;28.60;31.80;;;;;;2271490;61;20370;-61
2023/08/01 04:26:09;0.00;0.00;0.62;0.00;0.00;0.62;1.50;0.70;;;28.60;31.70;;;;;;2271887;61;20460;-61
2023/08/01 04:28:54;0.00;0.00;0.62;0.00;0.00;0.62;1.80;0.70;;;28.60;31.70;;;;;;2269651;61;20429;-63
2023/08/01 04:31:38;0.00;0.00;0.62;0.00;0.00;0.62;1.90;0.80;;;28.60;31.70;;;;;;2272171;61;20363;-61
2023/08/01 04:34:24;0.00;0.00;0.62;0.00;0.00;0.62;1.40;0.80;;;28.60;31.70;;;;;;2271483;61;20473;-61
2023/08/01 04:37:10;0.00;0.00;0.62;0.00;0.00;0.62;1.80;0.80;;;28.60;31.70;;;;;;2269725;61;20387;-61
2023/08/01 04:39:56;0.00;0.00;0.62;0.00;0.00;0.62;1.90;0.77;;;28.60;31.70;;;;;;2267372;61;20434;-64
2023/08/01 04:42:41;0.00;0.00;0.62;0.00;0.00;0.62;1.50;0.80;;;28.60;31.70;;;;;;2267506;61;20453;-61
2023/08/01 04:45:26;0.00;0.00;0.62;0.00;0.00;0.62;1.60;0.80;;;28.60;31.70;;;;;;2267923;61;20971;-61
2023/08/01 04:48:10;0.00;0.00;0.62;0.00;0.00;0.62;2.90;1.10;;;28.60;31.70;;;;;;2268032;61;20415;-61
2023/08/01 04:50:55;0.00;0.00;0.62;0.00;0.00;0.62;2.57;1.30;;;28.60;31.70;;;;;;2267237;61;20376;-61
2023/08/01 04:53:40;0.00;0.00;0.62;0.00;0.00;0.62;1.97;1.10;;;28.60;31.70;;;;;;2267637;61;20363;-60
2023/08/01 04:56:27;0.00;0.00;0.62;0.00;0.00;0.62;2.47;1.50;;;28.60;31.80;;;;;;2267685;61;20356;-61
2023/08/01 04:59:12;0.00;0.00;0.62;0.00;0.00;0.62;2.77;2.07;;;28.60;31.70;;;;;;2266966;61;20406;-61
2023/08/01 05:01:56;0.00;0.00;0.62;0.00;0.00;0.62;3.53;1.60;;;28.60;31.70;;;;;;2266626;61;20615;-61
2023/08/01 05:04:41;0.00;0.00;0.62;0.00;0.00;0.62;2.47;1.93;;;28.60;31.70;;;;;;2263943;61;20396;-62
2023/08/01 05:07:25;0.00;0.00;0.62;0.00;0.00;0.62;2.30;1.40;;;28.60;31.70;;;;;;2268009;61;20361;-61
2023/08/01 05:10:10;0.00;0.00;0.62;0.00;0.00;0.62;2.40;1.70;;;28.60;31.70;;;;;;2261541;61;20970;-61
2023/08/01 05:12:56;0.00;0.00;0.62;0.00;0.00;0.62;3.43;2.43;;;28.60;32.40;;;;;;2267267;61;20356;-61
2023/08/01 05:15:45;0.00;0.00;0.62;0.00;0.00;0.62;3.43;2.67;;;28.60;31.80;;;;;;2267541;61;20364;-61
2023/08/01 05:18:30;0.00;0.00;0.62;0.00;0.00;0.62;4.10;3.20;;;28.60;31.70;;;;;;2267311;61;20375;-61
2023/08/01 05:21:14;0.00;0.00;0.62;0.00;0.00;0.62;3.77;2.53;;;28.60;31.70;;;;;;2263817;61;20371;-60
2023/08/01 05:23:59;0.00;0.00;0.62;0.00;0.00;0.62;3.30;2.60;;;28.60;32.40;;;;;;2267974;61;20368;-61
2023/08/01 05:26:43;0.00;0.00;0.62;0.00;0.00;0.62;3.27;2.63;;;28.60;31.70;;;;;;2267170;61;20911;-61
2023/08/01 05:29:30;0.00;0.00;0.62;0.00;0.00;0.62;3.57;2.83;;;28.60;31.70;;;;;;2267208;61;20427;-61
2023/08/01 05:32:15;0.00;0.00;0.62;0.00;0.00;0.62;3.70;2.77;;;28.60;31.70;;;;;;2264402;61;20387;-60
2023/08/01 05:35:00;0.00;0.00;0.62;0.00;0.00;0.62;3.60;2.80;;;28.60;31.70;;;;;;2267454;61;20367;-61
2023/08/01 05:37:45;0.00;0.00;0.62;0.00;0.00;0.62;3.33;2.70;;;28.60;31.70;;;;;;2264759;61;20356;-62
2023/08/01 05:40:29;0.00;0.00;0.62;0.00;0.00;0.62;3.40;2.30;;;28.60;31.70;;;;;;2267213;61;20459;-62
2023/08/01 05:43:14;0.00;0.00;0.62;0.00;0.00;0.62;3.33;2.63;;;28.60;31.70;;;;;;2266949;61;20398;-62
2023/08/01 05:46:00;0.00;0.00;0.62;0.00;0.00;0.62;2.70;2.30;;;28.60;31.70;;;;;;2267576;61;20363;-62
2023/08/01 05:48:45;0.00;0.00;0.62;0.00;0.00;0.62;3.17;2.80;;;28.60;31.70;;;;;;2263798;61;20950;-61
2023/08/01 05:51:30;0.00;0.00;0.62;0.00;0.00;0.62;3.87;2.33;;;28.60;31.70;;;;;;2268029;61;20426;-62
2023/08/01 05:54:14;0.00;0.00;0.62;0.00;0.00;0.62;3.70;2.60;;;28.60;31.70;;;;;;2267865;61;20371;-62
2023/08/01 05:56:59;0.00;0.00;0.62;0.00;0.00;0.62;2.87;2.40;;;28.60;31.70;;;;;;2266868;61;20364;-61
2023/08/01 05:59:47;0.00;0.00;0.62;0.00;0.00;0.62;3.27;2.17;;;28.60;31.70;;;;;;2299176;40;20459;-62
2023/08/01 06:02:33;0.00;0.00;0.62;0.00;0.00;0.62;2.33;1.83;;;28.60;31.70;;;;;;2273266;61;20367;-61
2023/08/01 06:05:18;0.00;0.00;0.62;0.00;0.00;0.62;2.73;2.10;;;28.60;31.70;;;;;;2270871;61;20405;-62
2023/08/01 06:08:03;0.00;0.00;0.62;0.00;0.00;0.62;3.40;2.67;;;28.60;31.80;;;;;;2271792;61;20410;-61
2023/08/01 06:10:48;0.00;0.00;0.62;0.00;0.00;0.62;3.10;2.10;;;28.60;31.70;;;;;;2271646;61;20366;-62
2023/08/01 06:13:33;0.00;0.00;0.62;0.00;0.00;0.62;2.60;1.90;;;28.60;31.70;;;;;;2268502;61;20501;-61
2023/08/01 06:16:18;0.00;0.00;0.62;0.00;0.00;0.62;2.67;2.20;;;28.60;31.70;;;;;;2271819;61;20452;-61
2023/08/01 06:19:04;0.00;0.00;0.62;0.00;0.00;0.62;2.50;1.97;;;28.60;31.70;;;;;;2270530;61;20371;-61
2023/08/01 06:21:48;0.00;0.00;0.62;0.00;0.00;0.62;2.93;2.17;;;28.60;31.70;;;;;;2271593;61;20367;-61
2023/08/01 06:24:34;0.00;0.00;0.62;0.00;0.00;0.62;2.80;2.07;;;28.60;31.70;;;;;;2271152;61;20903;-61
2023/08/01 06:27:19;0.00;0.00;0.62;0.00;0.00;0.62;2.73;1.80;;;28.60;32.40;;;;;;2270838;61;20368;-61
2023/08/01 06:30:06;0.00;0.00;0.62;0.00;0.00;0.62;2.20;1.67;;;28.60;31.70;;;;;;2271046;61;20561;-61
2023/08/01 06:32:51;0.00;0.00;0.62;0.00;0.00;0.62;2.60;1.83;;;28.60;31.70;;;;;;2271774;61;20405;-61
2023/08/01 06:35:37;0.00;0.00;0.62;0.00;0.00;0.62;2.40;1.73;;;28.60;31.70;;;;;;2271696;61;20363;-63
2023/08/01 06:38:21;0.00;0.00;0.62;0.00;0.00;0.62;2.87;2.43;;;28.60;31.70;;;;;;2271741;61;20423;-59
2023/08/01 06:41:06;0.00;0.00;0.62;0.00;0.00;0.62;2.20;1.60;;;28.60;31.70;;;;;;2271097;61;20405;-61
2023/08/01 06:43:51;0.00;0.00;0.62;0.00;0.00;0.62;2.40;1.80;;;28.60;31.70;;;;;;2271609;61;20423;-61
2023/08/01 06:46:35;0.00;0.00;0.62;0.00;0.00;0.62;2.40;1.80;;;28.60;31.70;;;;;;2271374;61;20359;-62
2023/08/01 06:49:20;0.00;0.00;0.62;0.00;0.00;0.62;3.00;2.03;;;28.60;31.70;;;;;;2270552;61;20819;-61
2023/08/01 06:52:07;0.00;0.00;0.62;0.00;0.00;0.62;2.13;1.83;;;28.60;31.70;;;;;;2271673;61;20446;-62
2023/08/01 06:54:52;0.00;0.00;0.62;0.00;0.00;0.62;3.10;1.93;;;28.60;31.70;;;;;;2271406;61;20359;-62
2023/08/01 06:57:37;0.00;0.00;0.62;0.00;0.00;0.62;2.30;1.67;;;28.60;31.70;;;;;;2271263;61;21028;-61
2023/08/01 07:00:22;0.00;0.00;0.62;0.00;0.00;0.62;2.10;1.60;;;28.60;31.70;;;;;;2271132;61;20919;-62
2023/08/01 07:03:07;0.00;0.00;0.62;0.00;0.00;0.62;2.23;1.60;;;28.60;32.30;;;;;;2270929;61;20367;-61
2023/08/01 07:05:52;0.00;0.00;0.62;0.00;0.00;0.62;3.63;2.10;;;28.60;31.70;;;;;;2265739;61;20406;-61
2023/08/01 07:08:41;0.00;0.00;0.62;0.00;0.00;0.62;2.20;1.83;;;28.60;31.70;;;;;;2271146;61;20403;-61
2023/08/01 07:11:25;0.00;0.00;0.62;0.00;0.00;0.62;1.80;1.40;;;28.60;31.70;;;;;;2270700;61;20385;-61
2023/08/01 07:14:10;0.00;0.00;0.62;0.00;0.00;0.62;3.20;1.90;;;28.60;31.70;;;;;;2271112;61;20488;-61
2023/08/01 07:16:55;0.00;0.00;0.62;0.00;0.00;0.62;2.10;1.60;;;28.60;31.70;;;;;;2271937;61;20406;-61
2023/08/01 07:19:39;0.00;0.00;0.62;0.00;0.00;0.62;2.80;1.63;;;28.60;31.70;;;;;;2270416;61;20825;-62
2023/08/01 07:22:24;0.00;0.00;0.62;0.00;0.00;0.62;2.17;1.60;;;28.60;31.70;;;;;;2271424;61;20923;-62
2023/08/01 07:25:11;0.00;0.00;0.62;0.00;0.00;0.62;2.50;1.60;;;28.60;31.70;;;;;;2270931;61;20426;-64
2023/08/01 07:27:58;0.00;0.00;0.62;0.00;0.00;0.62;3.10;2.00;;;28.60;31.70;;;;;;2271478;61;20454;-62
2023/08/01 07:30:43;0.00;0.00;0.62;0.00;0.00;0.62;2.50;1.80;;;28.60;31.70;;;;;;2271467;61;20535;-62
2023/08/01 07:33:28;0.00;0.00;0.62;0.00;0.00;0.62;2.50;1.87;;;28.60;31.70;;;;;;2270952;61;20363;-61
2023/08/01 07:36:13;0.00;0.00;0.62;0.00;0.00;0.62;3.70;1.80;;;28.60;31.70;;;;;;2271124;61;20810;-61
2023/08/01 07:38:57;0.00;0.00;0.62;0.00;0.00;0.62;3.80;2.00;;;28.60;31.70;;;;;;2271334;61;20421;-61
2023/08/01 07:41:43;0.00;0.00;0.62;0.00;0.00;0.62;2.63;1.87;;;28.60;31.70;;;;;;2271395;61;20363;-61
2023/08/01 07:44:28;0.00;0.00;0.62;0.00;0.00;0.62;2.40;1.80;;;28.60;32.40;;;;;;2271620;61;20363;-62
2023/08/01 07:47:14;0.00;0.00;0.62;0.00;0.00;0.62;2.83;2.10;;;28.60;31.70;;;;;;2270894;61;20401;-61
2023/08/01 07:49:58;0.00;0.00;0.62;0.00;0.00;0.62;2.27;1.80;;;28.60;31.80;;;;;;2271190;61;20435;-62
2023/08/01 07:52:43;0.00;0.00;0.62;0.00;0.00;0.62;2.13;1.73;;;28.60;31.80;;;;;;2268143;61;20381;-61
2023/08/01 07:55:28;0.00;0.00;0.62;0.00;0.00;0.62;2.23;1.70;;;28.60;31.80;;;;;;2270720;61;20354;-61
2023/08/01 07:58:13;0.00;0.00;0.62;0.00;0.00;0.62;3.20;1.90;;;28.60;31.70;;;;;;2271961;61;20429;-61
2023/08/01 08:01:04;0.00;0.00;0.62;0.00;0.00;0.62;2.63;2.00;;;28.60;31.80;;;;;;2272257;61;20367;-61
2023/08/01 08:03:49;0.00;0.00;0.62;0.00;0.00;0.62;2.50;1.90;;;28.60;32.40;;;;;;2271402;61;20435;-62
2023/08/01 08:06:34;0.00;0.00;0.62;0.00;0.00;0.62;2.73;1.80;;;28.60;31.80;;;;;;2272173;61;20923;-61
2023/08/01 08:09:18;0.00;0.00;0.62;0.00;0.00;0.62;2.83;1.97;;;28.60;31.80;;;;;;2272261;55;20448;-62
2023/08/01 08:12:03;0.00;0.00;0.62;0.00;0.00;0.62;4.80;1.87;;;28.60;31.80;;;;;;2272064;61;20420;-65
2023/08/01 08:14:50;0.00;0.00;0.62;0.00;0.00;0.62;2.20;1.67;;;28.60;32.50;;;;;;2272383;61;20860;-62
2023/08/01 08:17:34;0.00;0.00;0.62;0.00;0.00;0.62;2.83;1.60;;;28.60;31.80;;;;;;2271651;61;20385;-61
2023/08/01 08:20:19;0.00;0.00;0.62;0.00;0.00;0.62;3.03;1.83;;;28.60;31.80;;;;;;2271756;61;20416;-61
2023/08/01 08:23:04;0.00;0.00;0.62;0.00;0.00;0.62;2.70;1.83;;;28.60;31.80;;;;;;2272112;61;20380;-61
2023/08/01 08:25:50;0.00;0.00;0.62;0.00;0.00;0.62;3.90;1.90;;;28.60;31.80;;;;;;2271489;61;20360;-61
2023/08/01 08:28:36;0.00;0.00;0.62;0.00;0.00;0.62;3.43;2.00;;;28.60;31.80;;;;;;2271552;61;20391;-61
2023/08/01 08:31:22;0.00;0.00;0.62;0.00;0.00;0.62;3.27;2.20;;;28.60;31.80;;;;;;2271713;61;20447;-61
2023/08/01 08:34:07;0.00;0.00;0.62;0.00;0.00;0.62;2.80;2.10;;;28.60;31.90;;;;;;2268939;61;20477;-61
2023/08/01 08:36:52;0.00;0.00;0.62;0.00;0.00;0.62;3.10;2.40;;;28.60;31.90;;;;;;2268820;61;20378;-61
2023/08/01 08:39:37;0.00;0.00;0.62;0.00;0.00;0.62;2.97;2.30;;;28.60;31.90;;;;;;2270731;61;20379;-61
2023/08/01 08:42:22;0.00;0.00;0.62;0.00;0.00;0.62;2.67;2.40;;;28.60;31.90;;;;;;2271984;61;20381;-61
2023/08/01 08:45:08;0.00;0.00;0.62;0.00;0.00;0.62;2.87;2.27;;;28.60;31.90;;;;;;2271638;61;20390;-62
2023/08/01 08:48:01;0.00;0.00;0.62;0.00;0.00;0.62;2.73;1.93;;;28.60;31.90;;;;;;2271466;61;20946;-61
2023/08/01 08:50:46;0.00;0.00;0.62;0.00;0.00;0.62;3.93;2.80;;;28.60;31.90;;;;;;2272188;61;20395;-61
2023/08/01 08:53:32;0.00;0.00;0.62;0.00;0.00;0.62;2.73;2.43;;;28.60;31.90;;;;;;2271983;61;20373;-61
2023/08/01 08:56:17;0.00;0.00;0.62;0.00;0.00;0.62;2.60;2.40;;;28.60;31.90;;;;;;2271753;61;20367;-61
2023/08/01 08:59:02;0.00;0.00;0.62;0.00;0.00;0.62;3.03;2.67;;;28.60;31.90;;;;;;2268173;61;20517;-59
2023/08/01 09:01:47;0.00;0.00;0.62;0.00;0.00;0.62;4.30;2.47;;;28.60;31.90;;;;;;2271193;61;20358;-66
2023/08/01 09:04:34;0.00;0.00;0.62;0.00;0.00;0.62;3.00;2.40;;;28.60;31.90;;;;;;2271851;61;20440;-61
2023/08/01 09:07:22;0.00;0.00;0.62;0.00;0.00;0.62;3.27;2.50;;;28.60;31.90;;;;;;2272076;61;20408;-61
2023/08/01 09:10:08;0.00;0.00;0.62;0.00;0.00;0.62;3.27;2.17;;;28.60;31.90;;;;;;2271002;61;20355;-61
2023/08/01 09:12:53;0.00;0.00;0.62;0.00;0.00;0.62;4.23;2.57;;;28.60;31.90;;;;;;2271945;61;20421;-60
2023/08/01 09:15:40;0.00;0.00;0.62;0.00;0.00;0.62;3.30;2.60;;;28.60;31.90;;;;;;2271441;61;20409;-61
2023/08/01 09:18:25;0.00;0.00;0.62;0.00;0.00;0.62;2.40;2.10;;;28.60;32.00;;;;;;2271308;61;20425;-61
2023/08/01 09:21:12;0.00;0.00;0.62;0.00;0.00;0.62;4.03;2.37;;;28.60;31.90;;;;;;2271387;61;20377;-61
2023/08/01 09:23:57;0.00;0.00;0.62;0.00;0.00;0.62;2.80;2.30;;;28.60;32.00;;;;;;2271430;61;20406;-60
2023/08/01 09:26:42;0.00;0.00;0.62;0.00;0.00;0.62;3.80;2.53;;;28.70;32.10;;;;;;2271754;61;20411;-61
2023/08/01 09:29:27;0.00;0.00;0.62;0.00;0.00;0.62;4.20;2.63;;;28.70;32.10;;;;;;2270998;61;20796;-61
2023/08/01 09:32:13;0.00;0.00;0.62;0.00;0.00;0.62;3.00;1.80;;;28.70;32.10;;;;;;2270602;61;20371;-64
2023/08/01 09:35:00;0.00;0.00;0.62;0.00;0.00;0.62;2.60;2.20;;;28.70;32.10;;;;;;2271551;61;20713;-61
2023/08/01 09:37:46;0.00;0.00;0.62;0.00;0.00;0.62;2.33;1.70;;;28.70;32.10;;;;;;2268383;61;20611;-61
2023/08/01 09:40:36;0.00;0.00;0.62;0.00;0.00;0.62;4.27;2.33;;;28.70;32.10;;;;;;2266794;61;20784;-62
2023/08/01 09:43:21;0.00;0.00;0.62;0.00;0.00;0.62;3.10;2.40;;;28.70;32.20;;;;;;2267385;61;20410;-61
2023/08/01 09:46:07;0.00;0.00;0.62;0.00;0.00;0.62;2.93;2.30;;;28.70;32.10;;;;;;2266834;61;20364;-61
2023/08/01 09:48:51;0.00;0.00;0.62;0.00;0.00;0.62;3.00;2.00;;;28.70;32.20;;;;;;2265840;61;20801;-60
2023/08/01 09:51:48;0.00;0.00;0.62;0.00;0.00;0.62;2.57;2.13;;;28.70;32.20;;;;;;2265803;61;20426;-61
2023/08/01 09:54:34;0.00;0.00;0.62;0.00;0.00;0.62;2.73;2.33;;;28.70;32.20;;;;;;2261892;61;20368;-60
2023/08/01 09:57:20;0.00;0.00;0.62;0.00;0.00;0.62;2.80;2.13;;;28.70;32.30;;;;;;2265400;61;20376;-60
2023/08/01 10:00:09;0.00;0.00;0.62;0.00;0.00;0.62;2.60;1.97;;;28.70;32.30;;;;;;2269096;61;20355;-59
2023/08/01 10:03:01;0.00;0.00;0.62;0.00;0.00;0.62;3.23;2.10;;;28.70;32.30;;;;;;2269484;61;20363;-61
2023/08/01 10:05:45;0.00;0.00;0.62;0.00;0.00;0.62;4.40;2.00;;;28.70;32.30;;;;;;2269765;61;20830;-60
2023/08/01 10:08:33;0.00;0.00;0.62;0.00;0.00;0.62;2.90;2.10;;;28.70;32.30;;;;;;2268623;61;20410;-59
2023/08/01 10:11:21;0.00;0.00;0.62;0.00;0.00;0.62;4.23;2.30;;;28.70;32.30;;;;;;2269579;61;20363;-62
2023/08/01 10:14:06;0.00;0.00;0.62;0.00;0.00;0.62;3.10;1.97;;;28.70;32.30;;;;;;2269764;61;20379;-60
2023/08/01 10:16:52;0.00;0.00;0.62;0.00;0.00;0.62;3.90;2.37;;;28.70;32.30;;;;;;2268909;61;20413;-61
2023/08/01 10:19:37;0.00;0.00;0.62;0.00;0.00;0.62;1.90;1.70;;;28.80;32.30;;;;;;2269367;61;20902;-59
2023/08/01 10:22:23;0.00;0.00;0.62;0.00;0.00;0.62;2.67;1.90;;;28.80;32.40;;;;;;2269382;61;20823;-60
2023/08/01 10:25:10;0.00;0.00;0.62;0.00;0.00;0.62;1.97;1.47;;;28.80;32.30;;;;;;2269542;61;20800;-61
2023/08/01 10:28:01;0.00;0.00;0.62;0.00;0.00;0.62;2.10;1.67;;;28.70;32.30;;;;;;2269206;61;20391;-62
2023/08/01 10:30:45;0.00;0.00;0.62;0.00;0.00;0.62;2.47;1.50;;;28.80;32.30;;;;;;2268606;61;20367;-61
2023/08/01 10:33:33;0.00;0.00;0.62;0.00;0.00;0.62;2.50;1.50;;;28.80;32.30;;;;;;2269512;61;20405;-60
2023/08/01 10:36:21;0.00;0.00;0.62;0.00;0.00;0.62;2.23;1.57;;;28.80;32.40;;;;;;2269535;61;20779;-61
2023/08/01 10:39:06;0.00;0.00;0.62;0.00;0.00;0.62;2.77;1.50;;;28.80;32.30;;;;;;2268460;61;20816;-61
2023/08/01 10:41:59;0.00;0.00;0.62;0.00;0.00;0.62;2.50;1.47;;;28.80;32.30;;;;;;2269863;61;20833;-61
2023/08/01 10:44:46;0.00;0.00;0.62;0.00;0.00;0.62;2.10;1.60;;;28.80;32.30;;;;;;2269448;61;20771;-59
2023/08/01 10:47:31;0.00;0.00;0.62;0.00;0.00;0.62;2.50;1.37;;;28.80;32.30;;;;;;2269504;61;20450;-59
2023/08/01 10:50:17;0.00;0.00;0.62;0.00;0.00;0.62;2.30;1.57;;;28.80;32.30;;;;;;2269140;61;20765;-61
2023/08/01 10:53:05;0.00;0.00;0.62;0.00;0.00;0.62;1.87;1.30;;;28.80;32.30;;;;;;2268789;61;20362;-60